sensor_id;sensor_type;location;lat;lon;timestamp;temperature;humidity
74376;HTU21D;62812;55.188;61.302;2022-12-18T00:02:05;-2.65;75.61
74376;HTU21D;62812;55.188;61.302;2022-12-18T00:04:31;-2.56;77.75
74376;HTU21D;62812;55.188;61.302;2022-12-18T00:06:58;-2.56;76.35
74376;HTU21D;62812;55.188;61.302;2022-12-18T00:09:26;-2.44;75.67
74376;HTU21D;62812;55.188;61.302;2022-12-18T00:11:52;-2.37;76.03
74376;HTU21D;62812;55.188;61.302;2022-12-18T00:14:19;-2.33;76.20
74376;HTU21D;62812;55.188;61.302;2022-12-18T00:16:46;-2.24;75.43
74376;HTU21D;62812;55.188;61.302;2022-12-18T00:19:13;-2.21;75.24
74376;HTU21D;62812;55.188;61.302;2022-12-18T00:21:43;-2.17;73.12
74376;HTU21D;62812;55.188;61.302;2022-12-18T00:24:10;-2.07;73.77
74376;HTU21D;62812;55.188;61.302;2022-12-18T00:26:39;-2.05;74.48
74376;HTU21D;62812;55.188;61.302;2022-12-18T00:29:07;-2.12;74.61
74376;HTU21D;62812;55.188;61.302;2022-12-18T00:31:34;-2.08;74.44
74376;HTU21D;62812;55.188;61.302;2022-12-18T00:34:01;-2.01;73.21
74376;HTU21D;62812;55.188;61.302;2022-12-18T00:36:29;-2.00;74.73
74376;HTU21D;62812;55.188;61.302;2022-12-18T00:38:57;-1.94;72.44
74376;HTU21D;62812;55.188;61.302;2022-12-18T00:41:25;-1.91;73.02
74376;HTU21D;62812;55.188;61.302;2022-12-18T00:44:13;-2.10;74.99
74376;HTU21D;62812;55.188;61.302;2022-12-18T00:46:40;-2.21;75.11
74376;HTU21D;62812;55.188;61.302;2022-12-18T00:49:07;-2.22;75.46
74376;HTU21D;62812;55.188;61.302;2022-12-18T00:51:34;-2.41;76.73
74376;HTU21D;62812;55.188;61.302;2022-12-18T00:54:00;-2.44;75.54
74376;HTU21D;62812;55.188;61.302;2022-12-18T00:56:27;-2.45;76.49
74376;HTU21D;62812;55.188;61.302;2022-12-18T00:58:53;-2.46;76.79
74376;HTU21D;62812;55.188;61.302;2022-12-18T01:01:21;-2.35;74.28
74376;HTU21D;62812;55.188;61.302;2022-12-18T01:03:48;-2.31;76.01
74376;HTU21D;62812;55.188;61.302;2022-12-18T01:06:15;-2.22;74.22
74376;HTU21D;62812;55.188;61.302;2022-12-18T01:08:42;-2.23;74.02
74376;HTU21D;62812;55.188;61.302;2022-12-18T01:11:11;-2.19;73.97
74376;HTU21D;62812;55.188;61.302;2022-12-18T01:13:38;-2.09;74.09
74376;HTU21D;62812;55.188;61.302;2022-12-18T01:16:04;-2.04;72.93
74376;HTU21D;62812;55.188;61.302;2022-12-18T01:18:32;-1.92;73.06
74376;HTU21D;62812;55.188;61.302;2022-12-18T01:20:59;-1.77;72.70
74376;HTU21D;62812;55.188;61.302;2022-12-18T01:23:25;-1.82;73.61
74376;HTU21D;62812;55.188;61.302;2022-12-18T01:25:52;-1.91;74.42
74376;HTU21D;62812;55.188;61.302;2022-12-18T01:28:18;-1.93;73.99
74376;HTU21D;62812;55.188;61.302;2022-12-18T01:30:44;-1.88;72.77
74376;HTU21D;62812;55.188;61.302;2022-12-18T01:33:11;-1.78;71.82
74376;HTU21D;62812;55.188;61.302;2022-12-18T01:35:42;-1.65;72.56
74376;HTU21D;62812;55.188;61.302;2022-12-18T01:38:09;-1.69;72.27
74376;HTU21D;62812;55.188;61.302;2022-12-18T01:40:36;-1.65;70.97
74376;HTU21D;62812;55.188;61.302;2022-12-18T01:43:02;-1.62;71.55
74376;HTU21D;62812;55.188;61.302;2022-12-18T01:45:30;-1.63;70.62
74376;HTU21D;62812;55.188;61.302;2022-12-18T01:47:59;-1.55;70.43
74376;HTU21D;62812;55.188;61.302;2022-12-18T01:50:30;-1.53;71.06
74376;HTU21D;62812;55.188;61.302;2022-12-18T01:53:00;-1.60;71.76
74376;HTU21D;62812;55.188;61.302;2022-12-18T01:55:29;-1.57;72.12
74376;HTU21D;62812;55.188;61.302;2022-12-18T01:57:58;-1.53;72.04
74376;HTU21D;62812;55.188;61.302;2022-12-18T02:00:26;-1.56;70.55
74376;HTU21D;62812;55.188;61.302;2022-12-18T02:02:54;-1.60;71.49
74376;HTU21D;62812;55.188;61.302;2022-12-18T02:05:30;-1.61;72.36
74376;HTU21D;62812;55.188;61.302;2022-12-18T02:08:09;-1.63;71.10
74376;HTU21D;62812;55.188;61.302;2022-12-18T02:10:44;-1.52;70.60
74376;HTU21D;62812;55.188;61.302;2022-12-18T02:13:16;-1.55;71.38
74376;HTU21D;62812;55.188;61.302;2022-12-18T02:15:53;-1.53;71.84
74376;HTU21D;62812;55.188;61.302;2022-12-18T02:18:27;-1.57;71.86
74376;HTU21D;62812;55.188;61.302;2022-12-18T02:20:56;-1.56;71.75
74376;HTU21D;62812;55.188;61.302;2022-12-18T02:23:41;-1.55;72.04
74376;HTU21D;62812;55.188;61.302;2022-12-18T02:26:18;-1.61;72.22
74376;HTU21D;62812;55.188;61.302;2022-12-18T02:28:49;-1.57;72.00
74376;HTU21D;62812;55.188;61.302;2022-12-18T02:31:23;-1.49;70.82
74376;HTU21D;62812;55.188;61.302;2022-12-18T02:33:53;-1.43;71.71
74376;HTU21D;62812;55.188;61.302;2022-12-18T02:36:22;-1.45;72.03
74376;HTU21D;62812;55.188;61.302;2022-12-18T02:38:50;-1.55;72.36
74376;HTU21D;62812;55.188;61.302;2022-12-18T02:41:19;-1.68;71.71
74376;HTU21D;62812;55.188;61.302;2022-12-18T02:43:47;-1.71;71.87
74376;HTU21D;62812;55.188;61.302;2022-12-18T02:46:27;-1.62;72.49
74376;HTU21D;62812;55.188;61.302;2022-12-18T02:49:02;-1.65;73.73
74376;HTU21D;62812;55.188;61.302;2022-12-18T02:51:34;-1.73;73.00
74376;HTU21D;62812;55.188;61.302;2022-12-18T02:54:08;-1.70;73.75
74376;HTU21D;62812;55.188;61.302;2022-12-18T02:56:41;-1.85;74.06
74376;HTU21D;62812;55.188;61.302;2022-12-18T02:59:13;-1.98;75.27
74376;HTU21D;62812;55.188;61.302;2022-12-18T03:01:50;-1.93;73.94
74376;HTU21D;62812;55.188;61.302;2022-12-18T03:04:18;-1.85;73.78
74376;HTU21D;62812;55.188;61.302;2022-12-18T03:06:49;-1.82;73.93
74376;HTU21D;62812;55.188;61.302;2022-12-18T03:09:19;-1.75;74.45
74376;HTU21D;62812;55.188;61.302;2022-12-18T03:11:54;-1.71;73.84
74376;HTU21D;62812;55.188;61.302;2022-12-18T03:14:41;-1.77;75.23
74376;HTU21D;62812;55.188;61.302;2022-12-18T03:17:11;-1.82;74.52
74376;HTU21D;62812;55.188;61.302;2022-12-18T03:19:41;-1.79;73.92
74376;HTU21D;62812;55.188;61.302;2022-12-18T03:22:10;-1.79;73.77
74376;HTU21D;62812;55.188;61.302;2022-12-18T03:24:37;-1.79;75.19
74376;HTU21D;62812;55.188;61.302;2022-12-18T03:27:09;-1.83;73.96
74376;HTU21D;62812;55.188;61.302;2022-12-18T03:29:39;-1.73;74.48
74376;HTU21D;62812;55.188;61.302;2022-12-18T03:32:10;-1.75;75.71
74376;HTU21D;62812;55.188;61.302;2022-12-18T03:34:40;-1.77;74.93
74376;HTU21D;62812;55.188;61.302;2022-12-18T03:37:07;-1.82;75.75
74376;HTU21D;62812;55.188;61.302;2022-12-18T03:39:34;-1.97;76.82
74376;HTU21D;62812;55.188;61.302;2022-12-18T03:42:05;-2.02;76.73
74376;HTU21D;62812;55.188;61.302;2022-12-18T03:44:40;-2.03;76.83
74376;HTU21D;62812;55.188;61.302;2022-12-18T03:47:14;-2.01;76.54
74376;HTU21D;62812;55.188;61.302;2022-12-18T03:49:46;-1.99;76.90
74376;HTU21D;62812;55.188;61.302;2022-12-18T03:52:20;-2.05;77.35
74376;HTU21D;62812;55.188;61.302;2022-12-18T03:54:48;-2.08;77.40
74376;HTU21D;62812;55.188;61.302;2022-12-18T03:57:18;-1.98;75.21
74376;HTU21D;62812;55.188;61.302;2022-12-18T03:59:50;-1.88;76.15
74376;HTU21D;62812;55.188;61.302;2022-12-18T04:02:17;-1.91;76.97
74376;HTU21D;62812;55.188;61.302;2022-12-18T04:04:45;-1.92;75.26
74376;HTU21D;62812;55.188;61.302;2022-12-18T04:07:14;-1.85;75.23
74376;HTU21D;62812;55.188;61.302;2022-12-18T04:09:41;-1.76;74.78
74376;HTU21D;62812;55.188;61.302;2022-12-18T04:12:09;-1.77;75.31
74376;HTU21D;62812;55.188;61.302;2022-12-18T04:14:36;-1.75;74.78
74376;HTU21D;62812;55.188;61.302;2022-12-18T04:17:03;-1.72;74.36
74376;HTU21D;62812;55.188;61.302;2022-12-18T04:19:30;-1.65;74.57
74376;HTU21D;62812;55.188;61.302;2022-12-18T04:21:56;-1.73;76.18
74376;HTU21D;62812;55.188;61.302;2022-12-18T04:24:22;-1.75;74.50
74376;HTU21D;62812;55.188;61.302;2022-12-18T04:26:49;-1.70;74.58
74376;HTU21D;62812;55.188;61.302;2022-12-18T04:29:15;-1.62;74.12
74376;HTU21D;62812;55.188;61.302;2022-12-18T04:31:42;-1.58;75.29
74376;HTU21D;62812;55.188;61.302;2022-12-18T04:34:10;-1.52;73.27
74376;HTU21D;62812;55.188;61.302;2022-12-18T04:36:36;-1.46;74.59
74376;HTU21D;62812;55.188;61.302;2022-12-18T04:39:03;-1.47;74.12
74376;HTU21D;62812;55.188;61.302;2022-12-18T04:41:29;-1.44;73.28
74376;HTU21D;62812;55.188;61.302;2022-12-18T04:43:56;-1.34;72.38
74376;HTU21D;62812;55.188;61.302;2022-12-18T04:46:22;-1.36;72.64
74376;HTU21D;62812;55.188;61.302;2022-12-18T04:48:49;-1.31;73.18
74376;HTU21D;62812;55.188;61.302;2022-12-18T04:51:17;-1.26;73.17
74376;HTU21D;62812;55.188;61.302;2022-12-18T04:53:43;-1.19;71.97
74376;HTU21D;62812;55.188;61.302;2022-12-18T04:56:12;-1.28;73.46
74376;HTU21D;62812;55.188;61.302;2022-12-18T04:58:40;-1.29;73.80
74376;HTU21D;62812;55.188;61.302;2022-12-18T05:01:08;-1.33;74.72
74376;HTU21D;62812;55.188;61.302;2022-12-18T05:03:47;-1.36;73.88
74376;HTU21D;62812;55.188;61.302;2022-12-18T05:06:14;-1.42;74.80
74376;HTU21D;62812;55.188;61.302;2022-12-18T05:08:42;-1.45;75.44
74376;HTU21D;62812;55.188;61.302;2022-12-18T05:11:11;-1.52;75.47
74376;HTU21D;62812;55.188;61.302;2022-12-18T05:13:38;-1.54;75.09
74376;HTU21D;62812;55.188;61.302;2022-12-18T05:16:05;-1.45;75.09
74376;HTU21D;62812;55.188;61.302;2022-12-18T05:18:32;-1.36;74.43
74376;HTU21D;62812;55.188;61.302;2022-12-18T05:20:59;-1.30;74.47
74376;HTU21D;62812;55.188;61.302;2022-12-18T05:23:26;-1.31;74.89
74376;HTU21D;62812;55.188;61.302;2022-12-18T05:25:55;-1.28;74.13
74376;HTU21D;62812;55.188;61.302;2022-12-18T05:28:23;-1.29;74.80
74376;HTU21D;62812;55.188;61.302;2022-12-18T05:30:51;-1.30;74.05
74376;HTU21D;62812;55.188;61.302;2022-12-18T05:33:21;-1.30;74.73
74376;HTU21D;62812;55.188;61.302;2022-12-18T05:35:50;-1.15;72.62
74376;HTU21D;62812;55.188;61.302;2022-12-18T05:38:17;-1.14;74.40
74376;HTU21D;62812;55.188;61.302;2022-12-18T05:40:43;-1.01;73.32
74376;HTU21D;62812;55.188;61.302;2022-12-18T05:43:11;-1.02;72.68
74376;HTU21D;62812;55.188;61.302;2022-12-18T05:45:41;-0.99;73.25
74376;HTU21D;62812;55.188;61.302;2022-12-18T05:48:11;-0.98;73.96
74376;HTU21D;62812;55.188;61.302;2022-12-18T05:50:38;-1.00;74.43
74376;HTU21D;62812;55.188;61.302;2022-12-18T05:53:06;-1.06;75.13
74376;HTU21D;62812;55.188;61.302;2022-12-18T05:55:33;-1.12;75.18
74376;HTU21D;62812;55.188;61.302;2022-12-18T05:57:59;-1.02;74.56
74376;HTU21D;62812;55.188;61.302;2022-12-18T06:00:27;-1.08;75.18
74376;HTU21D;62812;55.188;61.302;2022-12-18T06:02:53;-1.08;75.34
74376;HTU21D;62812;55.188;61.302;2022-12-18T06:05:20;-0.97;74.57
74376;HTU21D;62812;55.188;61.302;2022-12-18T06:07:46;-0.86;74.13
74376;HTU21D;62812;55.188;61.302;2022-12-18T06:10:13;-0.84;73.63
74376;HTU21D;62812;55.188;61.302;2022-12-18T06:12:39;-0.71;73.37
74376;HTU21D;62812;55.188;61.302;2022-12-18T06:15:07;-0.59;71.95
74376;HTU21D;62812;55.188;61.302;2022-12-18T06:17:35;-0.50;72.67
74376;HTU21D;62812;55.188;61.302;2022-12-18T06:20:01;-0.49;71.24
74376;HTU21D;62812;55.188;61.302;2022-12-18T06:22:30;-0.52;72.97
74376;HTU21D;62812;55.188;61.302;2022-12-18T06:24:57;-0.59;73.47
74376;HTU21D;62812;55.188;61.302;2022-12-18T06:27:25;-0.59;73.32
74376;HTU21D;62812;55.188;61.302;2022-12-18T06:29:52;-0.51;72.09
74376;HTU21D;62812;55.188;61.302;2022-12-18T06:32:20;-0.36;71.19
74376;HTU21D;62812;55.188;61.302;2022-12-18T06:34:47;-0.26;71.49
74376;HTU21D;62812;55.188;61.302;2022-12-18T06:37:14;-0.19;70.53
74376;HTU21D;62812;55.188;61.302;2022-12-18T06:39:40;-0.10;69.84
74376;HTU21D;62812;55.188;61.302;2022-12-18T06:42:07;-0.02;71.41
74376;HTU21D;62812;55.188;61.302;2022-12-18T06:44:34;-0.10;72.09
74376;HTU21D;62812;55.188;61.302;2022-12-18T06:47:01;-0.17;72.28
74376;HTU21D;62812;55.188;61.302;2022-12-18T06:49:28;-0.15;70.44
74376;HTU21D;62812;55.188;61.302;2022-12-18T06:51:56;-0.14;71.45
74376;HTU21D;62812;55.188;61.302;2022-12-18T06:54:22;-0.14;72.63
74376;HTU21D;62812;55.188;61.302;2022-12-18T06:56:49;-0.14;72.50
74376;HTU21D;62812;55.188;61.302;2022-12-18T06:59:15;-0.19;72.75
74376;HTU21D;62812;55.188;61.302;2022-12-18T07:01:42;-0.21;71.86
74376;HTU21D;62812;55.188;61.302;2022-12-18T07:04:08;-0.13;72.03
74376;HTU21D;62812;55.188;61.302;2022-12-18T07:06:35;0.02;71.51
74376;HTU21D;62812;55.188;61.302;2022-12-18T07:09:03;0.01;73.17
74376;HTU21D;62812;55.188;61.302;2022-12-18T07:11:29;-0.02;72.78
74376;HTU21D;62812;55.188;61.302;2022-12-18T07:13:58;0.04;72.83
74376;HTU21D;62812;55.188;61.302;2022-12-18T07:16:24;0.07;72.58
74376;HTU21D;62812;55.188;61.302;2022-12-18T07:18:51;0.02;72.73
74376;HTU21D;62812;55.188;61.302;2022-12-18T07:21:19;0.09;72.29
74376;HTU21D;62812;55.188;61.302;2022-12-18T07:23:48;0.13;72.09
74376;HTU21D;62812;55.188;61.302;2022-12-18T07:26:18;0.10;72.61
74376;HTU21D;62812;55.188;61.302;2022-12-18T07:28:44;0.10;72.14
74376;HTU21D;62812;55.188;61.302;2022-12-18T07:31:12;0.07;72.82
74376;HTU21D;62812;55.188;61.302;2022-12-18T07:33:39;0.02;73.15
74376;HTU21D;62812;55.188;61.302;2022-12-18T07:36:07;0.02;71.62
74376;HTU21D;62812;55.188;61.302;2022-12-18T07:38:34;-0.01;73.43
74376;HTU21D;62812;55.188;61.302;2022-12-18T07:41:01;-0.06;74.21
74376;HTU21D;62812;55.188;61.302;2022-12-18T07:43:33;-0.09;75.04
74376;HTU21D;62812;55.188;61.302;2022-12-18T07:46:10;-0.22;76.08
74376;HTU21D;62812;55.188;61.302;2022-12-18T07:48:49;-0.22;74.64
74376;HTU21D;62812;55.188;61.302;2022-12-18T07:54:52;-0.09;74.46
74376;HTU21D;62812;55.188;61.302;2022-12-18T07:57:19;-0.07;75.05
74376;HTU21D;62812;55.188;61.302;2022-12-18T07:59:47;0.04;73.77
74376;HTU21D;62812;55.188;61.302;2022-12-18T08:02:13;0.12;74.40
74376;HTU21D;62812;55.188;61.302;2022-12-18T08:04:40;0.25;72.48
74376;HTU21D;62812;55.188;61.302;2022-12-18T08:07:07;0.27;74.08
74376;HTU21D;62812;55.188;61.302;2022-12-18T08:09:39;0.23;74.52
74376;HTU21D;62812;55.188;61.302;2022-12-18T08:12:06;0.20;74.35
74376;HTU21D;62812;55.188;61.302;2022-12-18T08:14:37;0.21;74.51
74376;HTU21D;62812;55.188;61.302;2022-12-18T08:17:08;0.30;73.97
74376;HTU21D;62812;55.188;61.302;2022-12-18T08:19:56;0.23;75.19
74376;HTU21D;62812;55.188;61.302;2022-12-18T08:22:29;0.27;74.25
74376;HTU21D;62812;55.188;61.302;2022-12-18T08:24:58;0.32;74.09
74376;HTU21D;62812;55.188;61.302;2022-12-18T08:27:25;0.36;73.96
74376;HTU21D;62812;55.188;61.302;2022-12-18T08:29:53;0.38;73.09
74376;HTU21D;62812;55.188;61.302;2022-12-18T08:32:24;0.44;74.57
74376;HTU21D;62812;55.188;61.302;2022-12-18T08:34:50;0.43;74.09
74376;HTU21D;62812;55.188;61.302;2022-12-18T08:37:17;0.44;74.30
74376;HTU21D;62812;55.188;61.302;2022-12-18T08:39:43;0.49;73.73
74376;HTU21D;62812;55.188;61.302;2022-12-18T08:42:10;0.51;72.62
74376;HTU21D;62812;55.188;61.302;2022-12-18T08:44:56;0.54;73.62
74376;HTU21D;62812;55.188;61.302;2022-12-18T08:47:24;0.63;71.88
74376;HTU21D;62812;55.188;61.302;2022-12-18T08:49:52;0.72;71.44
74376;HTU21D;62812;55.188;61.302;2022-12-18T08:52:19;0.76;73.31
74376;HTU21D;62812;55.188;61.302;2022-12-18T08:54:45;0.67;73.79
74376;HTU21D;62812;55.188;61.302;2022-12-18T08:57:13;0.66;73.88
74376;HTU21D;62812;55.188;61.302;2022-12-18T08:59:40;0.59;73.28
74376;HTU21D;62812;55.188;61.302;2022-12-18T09:02:08;0.60;72.71
74376;HTU21D;62812;55.188;61.302;2022-12-18T09:04:37;0.60;73.28
74376;HTU21D;62812;55.188;61.302;2022-12-18T09:07:04;0.65;73.95
74376;HTU21D;62812;55.188;61.302;2022-12-18T09:09:30;0.65;73.20
74376;HTU21D;62812;55.188;61.302;2022-12-18T09:11:59;0.69;72.90
74376;HTU21D;62812;55.188;61.302;2022-12-18T09:14:25;0.74;72.90
74376;HTU21D;62812;55.188;61.302;2022-12-18T09:16:52;0.78;73.64
74376;HTU21D;62812;55.188;61.302;2022-12-18T09:19:21;0.89;70.79
74376;HTU21D;62812;55.188;61.302;2022-12-18T09:21:49;0.99;71.84
74376;HTU21D;62812;55.188;61.302;2022-12-18T09:24:16;0.94;71.08
74376;HTU21D;62812;55.188;61.302;2022-12-18T09:26:52;0.90;74.21
74376;HTU21D;62812;55.188;61.302;2022-12-18T09:29:18;0.94;73.73
74376;HTU21D;62812;55.188;61.302;2022-12-18T09:31:45;0.88;74.54
74376;HTU21D;62812;55.188;61.302;2022-12-18T09:34:12;0.92;74.31
74376;HTU21D;62812;55.188;61.302;2022-12-18T09:36:38;0.89;73.33
74376;HTU21D;62812;55.188;61.302;2022-12-18T09:39:06;0.94;73.99
74376;HTU21D;62812;55.188;61.302;2022-12-18T09:41:41;0.95;74.40
74376;HTU21D;62812;55.188;61.302;2022-12-18T09:44:17;0.98;73.67
74376;HTU21D;62812;55.188;61.302;2022-12-18T09:46:48;1.01;73.63
74376;HTU21D;62812;55.188;61.302;2022-12-18T09:49:18;1.01;74.52
74376;HTU21D;62812;55.188;61.302;2022-12-18T09:51:48;0.99;73.62
74376;HTU21D;62812;55.188;61.302;2022-12-18T09:54:31;1.01;73.88
74376;HTU21D;62812;55.188;61.302;2022-12-18T09:56:59;0.96;75.13
74376;HTU21D;62812;55.188;61.302;2022-12-18T09:59:31;0.96;75.19
74376;HTU21D;62812;55.188;61.302;2022-12-18T10:01:59;1.05;72.56
74376;HTU21D;62812;55.188;61.302;2022-12-18T10:04:28;1.21;72.58
74376;HTU21D;62812;55.188;61.302;2022-12-18T10:07:04;1.22;74.17
74376;HTU21D;62812;55.188;61.302;2022-12-18T10:09:39;1.35;73.18
74376;HTU21D;62812;55.188;61.302;2022-12-18T10:12:16;1.40;72.80
74376;HTU21D;62812;55.188;61.302;2022-12-18T10:14:50;1.45;73.77
74376;HTU21D;62812;55.188;61.302;2022-12-18T10:17:28;1.57;71.46
74376;HTU21D;62812;55.188;61.302;2022-12-18T10:20:02;1.62;72.74
74376;HTU21D;62812;55.188;61.302;2022-12-18T10:22:48;1.55;73.18
74376;HTU21D;62812;55.188;61.302;2022-12-18T10:25:26;1.40;74.75
74376;HTU21D;62812;55.188;61.302;2022-12-18T10:28:21;1.35;76.39
74376;HTU21D;62812;55.188;61.302;2022-12-18T10:30:50;1.36;75.56
74376;HTU21D;62812;55.188;61.302;2022-12-18T10:33:18;1.34;75.48
74376;HTU21D;62812;55.188;61.302;2022-12-18T10:35:45;1.29;75.42
74376;HTU21D;62812;55.188;61.302;2022-12-18T10:38:24;1.24;75.83
74376;HTU21D;62812;55.188;61.302;2022-12-18T10:40:54;1.19;76.15
74376;HTU21D;62812;55.188;61.302;2022-12-18T10:43:23;1.09;76.79
74376;HTU21D;62812;55.188;61.302;2022-12-18T10:46:11;0.96;77.30
74376;HTU21D;62812;55.188;61.302;2022-12-18T10:48:40;0.84;78.05
74376;HTU21D;62812;55.188;61.302;2022-12-18T10:51:20;0.79;78.34
74376;HTU21D;62812;55.188;61.302;2022-12-18T10:53:55;0.76;77.90
74376;HTU21D;62812;55.188;61.302;2022-12-18T10:56:25;0.75;78.70
74376;HTU21D;62812;55.188;61.302;2022-12-18T10:59:00;0.74;78.71
74376;HTU21D;62812;55.188;61.302;2022-12-18T11:01:45;0.72;78.64
74376;HTU21D;62812;55.188;61.302;2022-12-18T11:04:16;0.68;79.12
74376;HTU21D;62812;55.188;61.302;2022-12-18T11:06:59;0.66;78.69
74376;HTU21D;62812;55.188;61.302;2022-12-18T11:09:31;0.63;77.93
74376;HTU21D;62812;55.188;61.302;2022-12-18T11:12:01;0.66;78.78
74376;HTU21D;62812;55.188;61.302;2022-12-18T11:14:29;0.72;78.56
74376;HTU21D;62812;55.188;61.302;2022-12-18T11:16:58;0.80;77.97
74376;HTU21D;62812;55.188;61.302;2022-12-18T11:19:33;0.86;78.14
74376;HTU21D;62812;55.188;61.302;2022-12-18T11:22:02;0.77;78.69
74376;HTU21D;62812;55.188;61.302;2022-12-18T11:24:31;0.76;78.59
74376;HTU21D;62812;55.188;61.302;2022-12-18T11:27:04;0.72;78.60
74376;HTU21D;62812;55.188;61.302;2022-12-18T11:29:35;0.71;78.84
74376;HTU21D;62812;55.188;61.302;2022-12-18T11:32:25;0.67;79.30
74376;HTU21D;62812;55.188;61.302;2022-12-18T11:35:00;0.64;79.44
74376;HTU21D;62812;55.188;61.302;2022-12-18T11:37:32;0.57;79.80
74376;HTU21D;62812;55.188;61.302;2022-12-18T11:40:03;0.55;79.83
74376;HTU21D;62812;55.188;61.302;2022-12-18T11:42:37;0.53;79.98
74376;HTU21D;62812;55.188;61.302;2022-12-18T11:45:22;0.52;80.02
74376;HTU21D;62812;55.188;61.302;2022-12-18T11:48:03;0.52;80.11
74376;HTU21D;62812;55.188;61.302;2022-12-18T11:50:43;0.64;79.41
74376;HTU21D;62812;55.188;61.302;2022-12-18T11:53:32;0.65;79.14
74376;HTU21D;62812;55.188;61.302;2022-12-18T11:56:29;0.62;79.81
74376;HTU21D;62812;55.188;61.302;2022-12-18T11:59:23;0.59;79.98
74376;HTU21D;62812;55.188;61.302;2022-12-18T12:01:59;0.53;79.91
74376;HTU21D;62812;55.188;61.302;2022-12-18T12:05:00;0.48;80.53
74376;HTU21D;62812;55.188;61.302;2022-12-18T12:07:44;0.49;80.29
74376;HTU21D;62812;55.188;61.302;2022-12-18T12:10:31;0.53;79.98
74376;HTU21D;62812;55.188;61.302;2022-12-18T12:13:20;0.55;80.16
74376;HTU21D;62812;55.188;61.302;2022-12-18T12:16:02;0.57;80.20
74376;HTU21D;62812;55.188;61.302;2022-12-18T12:22:15;0.50;80.63
74376;HTU21D;62812;55.188;61.302;2022-12-18T12:24:53;0.53;80.46
74376;HTU21D;62812;55.188;61.302;2022-12-18T12:27:36;0.52;80.47
74376;HTU21D;62812;55.188;61.302;2022-12-18T12:30:19;0.51;80.88
74376;HTU21D;62812;55.188;61.302;2022-12-18T12:33:07;0.49;80.91
74376;HTU21D;62812;55.188;61.302;2022-12-18T12:35:57;0.49;80.92
74376;HTU21D;62812;55.188;61.302;2022-12-18T12:38:57;0.52;80.52
74376;HTU21D;62812;55.188;61.302;2022-12-18T12:41:33;0.52;80.81
74376;HTU21D;62812;55.188;61.302;2022-12-18T12:44:28;0.55;80.62
74376;HTU21D;62812;55.188;61.302;2022-12-18T12:47:07;0.55;80.70
74376;HTU21D;62812;55.188;61.302;2022-12-18T12:49:38;0.57;80.64
74376;HTU21D;62812;55.188;61.302;2022-12-18T12:52:15;0.60;80.62
74376;HTU21D;62812;55.188;61.302;2022-12-18T12:54:44;0.60;80.47
74376;HTU21D;62812;55.188;61.302;2022-12-18T12:57:14;0.59;80.58
74376;HTU21D;62812;55.188;61.302;2022-12-18T12:59:51;0.61;80.46
74376;HTU21D;62812;55.188;61.302;2022-12-18T13:02:30;0.63;80.31
74376;HTU21D;62812;55.188;61.302;2022-12-18T13:05:14;0.73;78.00
74376;HTU21D;62812;55.188;61.302;2022-12-18T13:07:49;0.83;78.99
74376;HTU21D;62812;55.188;61.302;2022-12-18T13:10:40;0.93;78.27
74376;HTU21D;62812;55.188;61.302;2022-12-18T13:13:08;1.03;77.76
74376;HTU21D;62812;55.188;61.302;2022-12-18T13:15:40;1.16;75.21
74376;HTU21D;62812;55.188;61.302;2022-12-18T13:18:18;1.28;76.12
74376;HTU21D;62812;55.188;61.302;2022-12-18T13:20:49;1.36;75.51
74376;HTU21D;62812;55.188;61.302;2022-12-18T13:23:30;1.36;74.99
74376;HTU21D;62812;55.188;61.302;2022-12-18T13:26:30;1.38;74.28
74376;HTU21D;62812;55.188;61.302;2022-12-18T13:29:02;1.47;73.28
74376;HTU21D;62812;55.188;61.302;2022-12-18T13:34:33;1.48;73.54
74376;HTU21D;62812;55.188;61.302;2022-12-18T13:43:39;1.35;73.86
74376;HTU21D;62812;55.188;61.302;2022-12-18T13:46:20;1.35;74.07
74376;HTU21D;62812;55.188;61.302;2022-12-18T13:49:18;1.34;74.28
74376;HTU21D;62812;55.188;61.302;2022-12-18T13:51:48;1.33;75.25
74376;HTU21D;62812;55.188;61.302;2022-12-18T13:54:19;1.16;76.66
74376;HTU21D;62812;55.188;61.302;2022-12-18T13:56:48;1.16;76.89
74376;HTU21D;62812;55.188;61.302;2022-12-18T13:59:18;1.07;77.89
74376;HTU21D;62812;55.188;61.302;2022-12-18T14:01:46;1.01;78.82
74376;HTU21D;62812;55.188;61.302;2022-12-18T14:04:22;0.95;79.04
74376;HTU21D;62812;55.188;61.302;2022-12-18T14:06:52;0.86;79.86
74376;HTU21D;62812;55.188;61.302;2022-12-18T14:09:24;0.82;79.88
74376;HTU21D;62812;55.188;61.302;2022-12-18T14:12:00;0.82;79.34
74376;HTU21D;62812;55.188;61.302;2022-12-18T14:14:46;0.78;79.69
74376;HTU21D;62812;55.188;61.302;2022-12-18T14:17:17;0.75;79.40
74376;HTU21D;62812;55.188;61.302;2022-12-18T14:19:50;0.72;80.06
74376;HTU21D;62812;55.188;61.302;2022-12-18T14:22:25;0.71;80.24
74376;HTU21D;62812;55.188;61.302;2022-12-18T14:25:15;0.63;80.63
74376;HTU21D;62812;55.188;61.302;2022-12-18T14:27:45;0.61;80.56
74376;HTU21D;62812;55.188;61.302;2022-12-18T14:30:35;0.68;79.17
74376;HTU21D;62812;55.188;61.302;2022-12-18T14:33:03;0.79;79.27
74376;HTU21D;62812;55.188;61.302;2022-12-18T14:35:30;0.81;79.97
74376;HTU21D;62812;55.188;61.302;2022-12-18T14:38:22;0.77;79.44
74376;HTU21D;62812;55.188;61.302;2022-12-18T14:41:00;0.81;80.56
74376;HTU21D;62812;55.188;61.302;2022-12-18T14:44:05;0.81;79.78
74376;HTU21D;62812;55.188;61.302;2022-12-18T14:46:35;0.82;80.01
74376;HTU21D;62812;55.188;61.302;2022-12-18T14:49:03;0.77;80.91
74376;HTU21D;62812;55.188;61.302;2022-12-18T14:51:31;0.78;80.73
74376;HTU21D;62812;55.188;61.302;2022-12-18T14:54:00;0.80;80.33
74376;HTU21D;62812;55.188;61.302;2022-12-18T14:56:29;0.83;80.71
74376;HTU21D;62812;55.188;61.302;2022-12-18T14:59:12;0.84;79.62
74376;HTU21D;62812;55.188;61.302;2022-12-18T15:01:47;0.80;80.98
74376;HTU21D;62812;55.188;61.302;2022-12-18T15:04:27;0.83;80.56
74376;HTU21D;62812;55.188;61.302;2022-12-18T15:07:07;0.88;78.69
74376;HTU21D;62812;55.188;61.302;2022-12-18T15:10:03;0.96;78.02
74376;HTU21D;62812;55.188;61.302;2022-12-18T15:12:34;1.17;79.27
74376;HTU21D;62812;55.188;61.302;2022-12-18T15:15:03;1.28;78.26
74376;HTU21D;62812;55.188;61.302;2022-12-18T15:17:30;1.32;78.20
74376;HTU21D;62812;55.188;61.302;2022-12-18T15:20:00;1.36;78.92
74376;HTU21D;62812;55.188;61.302;2022-12-18T15:22:29;1.29;78.18
74376;HTU21D;62812;55.188;61.302;2022-12-18T15:24:57;1.23;80.35
74376;HTU21D;62812;55.188;61.302;2022-12-18T15:27:30;1.27;80.12
74376;HTU21D;62812;55.188;61.302;2022-12-18T15:30:17;1.14;81.30
74376;HTU21D;62812;55.188;61.302;2022-12-18T15:32:45;1.13;81.28
74376;HTU21D;62812;55.188;61.302;2022-12-18T15:35:16;1.09;79.37
74376;HTU21D;62812;55.188;61.302;2022-12-18T15:37:47;1.13;81.56
74376;HTU21D;62812;55.188;61.302;2022-12-18T15:40:15;1.10;81.97
74376;HTU21D;62812;55.188;61.302;2022-12-18T15:42:43;1.11;80.98
74376;HTU21D;62812;55.188;61.302;2022-12-18T15:45:30;1.28;78.90
74376;HTU21D;62812;55.188;61.302;2022-12-18T15:47:57;1.35;80.78
74376;HTU21D;62812;55.188;61.302;2022-12-18T15:50:24;1.29;81.63
74376;HTU21D;62812;55.188;61.302;2022-12-18T15:52:52;1.28;81.05
74376;HTU21D;62812;55.188;61.302;2022-12-18T15:55:21;1.32;81.30